Clinton, Iowa
Current Conditions -  °F | °C
As of 6:35 AM on Tuesday 27 Jan 2015 (Local Time) from KCWI Reporting Station
Overcast Overcast  
Wind Chill: 18°   Ceiling: 1200
Heat Index: 28°   Visibility: 8mi
Dew Point: 25°   Wind: 12mph
Humidity: 86%   Direction: 30°NNE
Pressure: 30.1"   Gusts: NA
Location:  41.84°N, 90.19°W
Report Text: KCWI 271235Z AUTO 03010KT 8SM OVC012 M02/M04 A3010 RMK AO1
Loading
Personal Weather Stations






























Interactive Weather Map New forecast layout! Learn more

10-Day Weather Forecast

Advertisements
Track Severe Weather on mobile